createdAt,value
2023-04-15T00:07:19.168Z,8.6
2023-04-15T00:22:53.180Z,7.5
2023-04-15T00:38:27.135Z,8.4
2023-04-15T00:54:01.131Z,8.8
2023-04-15T01:09:35.144Z,8
2023-04-15T01:25:09.113Z,5.4
2023-04-15T01:40:43.109Z,6.5
2023-04-15T01:56:17.441Z,6.3
2023-04-15T02:11:51.401Z,7.8
2023-04-15T02:27:25.381Z,6.6
2023-04-15T02:42:59.355Z,5.9
2023-04-15T02:58:33.305Z,6
2023-04-15T03:14:07.251Z,7.2
2023-04-15T03:29:41.252Z,7.3
2023-04-15T03:45:15.206Z,7.7
2023-04-15T04:00:49.055Z,8.2
2023-04-15T04:16:23.242Z,9.4
2023-04-15T04:31:57.658Z,9.8
2023-04-15T04:47:31.804Z,7.3
2023-04-15T05:03:06.189Z,9.2
2023-04-15T05:18:40.819Z,9.9
2023-04-15T05:34:14.770Z,9.6
2023-04-15T05:49:48.761Z,13
2023-04-15T06:05:22.756Z,13.7
2023-04-15T06:20:56.766Z,17.8
2023-04-15T06:36:30.686Z,18.8
2023-04-15T06:52:04.605Z,15.1
2023-04-15T07:07:38.560Z,16
2023-04-15T07:23:12.566Z,10.6
2023-04-15T07:38:46.523Z,10.1
2023-04-15T07:54:20.467Z,6.5
2023-04-15T08:09:54.589Z,7.4
2023-04-15T08:25:28.361Z,5.4
2023-04-15T08:41:02.336Z,7.1
2023-04-15T08:56:36.422Z,5.5
2023-04-15T09:12:10.663Z,3.4
2023-04-15T09:27:44.688Z,3.3
2023-04-15T09:43:18.699Z,2.7
2023-04-15T09:58:52.695Z,1.7
2023-04-15T10:14:27.129Z,1.8
2023-04-15T10:30:01.126Z,1.6
2023-04-15T10:45:35.077Z,2.2
2023-04-15T11:01:09.071Z,2.1
2023-04-15T11:16:43.214Z,1.3
2023-04-15T11:32:17.622Z,1.5
2023-04-15T11:47:52.148Z,2
2023-04-15T12:03:26.757Z,1.3
2023-04-15T12:19:02.824Z,1.6
2023-04-15T12:34:36.838Z,1.9
2023-04-15T12:50:11.021Z,2
2023-04-15T13:05:45.081Z,1.9
2023-04-15T13:21:19.063Z,1.3
2023-04-15T13:36:53.060Z,1.5
2023-04-15T13:52:27.039Z,2.1
2023-04-15T14:08:01.018Z,1.4
2023-04-15T14:23:35.043Z,3.4
2023-04-15T14:39:09.759Z,1.4
2023-04-15T14:54:43.711Z,2.3
2023-04-15T15:10:48.190Z,1.9
2023-04-15T15:26:23.656Z,3
2023-04-15T15:41:57.691Z,1.7
2023-04-15T15:57:31.765Z,3.5
2023-04-15T16:13:05.885Z,1.8
2023-04-15T16:28:52.331Z,3.9
2023-04-15T16:44:26.321Z,3.2
2023-04-15T17:00:00.306Z,4.1
2023-04-15T17:15:34.405Z,4.4
2023-04-15T17:31:08.674Z,3.2
2023-04-15T17:46:42.909Z,2.9
2023-04-15T18:02:17.355Z,2.4
2023-04-15T18:17:51.845Z,2.5
2023-04-15T18:33:26.288Z,3.8
2023-04-15T18:49:00.329Z,3.8
2023-04-15T19:04:34.744Z,4.8
2023-04-15T19:20:09.185Z,6.7
2023-04-15T19:35:43.193Z,9.6
2023-04-15T19:51:17.204Z,7.3
2023-04-15T20:06:51.240Z,8.2
2023-04-15T20:22:25.067Z,11.2
2023-04-15T20:37:59.289Z,11.5
2023-04-15T20:53:33.395Z,9.9
2023-04-15T21:09:07.940Z,9
2023-04-15T21:24:42.009Z,7.5
2023-04-15T21:40:16.151Z,10.4
2023-04-15T21:55:50.271Z,10.9
2023-04-15T22:11:24.404Z,7.9
2023-04-15T22:26:58.426Z,7.7
2023-04-15T22:42:32.991Z,11.4
2023-04-15T22:58:07.076Z,8.8
2023-04-15T23:13:41.090Z,7.4
2023-04-15T23:29:15.099Z,6.6
2023-04-15T23:44:49.209Z,7.4
